Terminal Aerodrome Forecast
Issued by NWS

Home | Current Version | Previous Version | Text Only | Print | Product List | Glossary On
Versions: 1 2 3 4 5 6 7 8 9 10 11 12 13 14 15 16 17
000
FTUS41 KGYX 030119 AAA
TAFPSM
TAF AMD
KPSM 030119Z 0301/0324 33006KT P6SM OVC016
     FM030500 32005KT 3SM BR OVC005
     FM030700 VRB03KT 1/2SM FG OVC002
     FM031200 34003KT P6SM OVC007
     FM031700 VRB04KT P6SM OVC015
     FM031900 13006KT P6SM OVC050=

USA.gov is the U.S. government's official web portal to all federal, state and local government web resources and services.